Weather at Jurbarkas Aerodromas

Public forecast

Using degrees Celsius for public forecast. Weather courtesy of forecast.io.

Closest aviation weather report (METAR) to Jurbarkas Aerodromas

Closest report is Kaunas International Airport, 46.3 nm (85.8 km) E.

2024/07/20 18:20 (retrieved 39 minutes ago)

EYKA 201820Z 08005KT 020V100 9999 FEW054CB 20/15 Q1012

Closest aviation forecast (TAF) to Jurbarkas Aerodromas

Closest forecast is Kaunas International Airport, 46.3 nm (85.8 km) E.

2024/07/20 18:04 (retrieved 55 minutes ago)

TAF EYKA 201700Z 2018/2118 VRB04KT 9000 NSC TEMPO 2018/2021 SCT045CB TEMPO 2022/2104 3000 MIFG BR SCT002 TEMPO 2111/2118 33014KT SCT045CB